createdAt,value
2023-02-11T00:00:01.651Z,82.384
2023-02-11T00:07:01.559Z,81.995
2023-02-11T00:14:01.442Z,81.995
2023-02-11T00:21:01.617Z,82.201
2023-02-11T00:28:01.894Z,82.201
2023-02-11T00:35:01.618Z,82.295
2023-02-11T00:42:01.472Z,82.295
2023-02-11T00:49:01.882Z,82.533
2023-02-11T00:56:01.501Z,82.533
2023-02-11T01:00:02.099Z,82.593
2023-02-11T01:07:01.848Z,82.593
2023-02-11T01:14:01.419Z,82.954
2023-02-11T01:21:01.751Z,82.954
2023-02-11T01:28:01.530Z,83.018
2023-02-11T01:35:01.481Z,83.018
2023-02-11T01:42:01.823Z,83.234
2023-02-11T01:49:02.343Z,83.221
2023-02-11T01:56:01.389Z,83.221
2023-02-11T02:00:01.965Z,83.221
2023-02-11T02:07:02.154Z,83.616
2023-02-11T02:14:02.047Z,83.616
2023-02-11T02:21:01.607Z,83.735
2023-02-11T02:28:02.172Z,83.577
2023-02-11T02:35:02.209Z,83.577
2023-02-11T02:42:01.480Z,83.608
2023-02-11T02:49:01.547Z,83.608
2023-02-11T02:56:01.938Z,83.598
2023-02-11T03:00:02.612Z,83.598
2023-02-11T03:07:01.851Z,83.775
2023-02-11T03:14:01.748Z,83.775
2023-02-11T03:21:01.634Z,83.986
2023-02-11T03:28:02.089Z,83.986
2023-02-11T03:35:01.814Z,83.764
2023-02-11T03:42:01.538Z,83.764
2023-02-11T03:49:01.684Z,83.745
2023-02-11T03:56:01.607Z,83.745
2023-02-11T04:00:02.272Z,83.997
2023-02-11T04:07:02.330Z,83.997
2023-02-11T04:14:01.961Z,84.512
2023-02-11T04:21:01.320Z,84.512
2023-02-11T04:28:01.940Z,84.385
2023-02-11T04:35:01.935Z,84.385
2023-02-11T04:42:01.321Z,84.647
2023-02-11T04:49:02.093Z,85.186
2023-02-11T04:56:01.434Z,85.186
2023-02-11T05:00:01.960Z,85.186
2023-02-11T05:07:01.586Z,85.23
2023-02-11T05:14:01.858Z,85.23
2023-02-11T05:21:01.544Z,85.795
2023-02-11T05:28:02.332Z,85.997
2023-02-11T05:35:01.558Z,85.997
2023-02-11T05:42:01.375Z,86.684
2023-02-11T05:49:01.528Z,86.684
2023-02-11T05:56:01.465Z,86.596
2023-02-11T06:00:02.038Z,86.596
2023-02-11T06:07:02.211Z,88.209
2023-02-11T06:14:01.960Z,88.209
2023-02-11T06:21:01.522Z,88.521
2023-02-11T06:28:01.527Z,88.521
2023-02-11T06:35:02.028Z,88.919
2023-02-11T06:42:01.971Z,88.919
2023-02-11T06:49:01.537Z,89.289
2023-02-11T06:56:02.129Z,89.289
2023-02-11T07:00:01.694Z,89.154
2023-02-11T07:07:01.331Z,89.154
2023-02-11T07:14:01.709Z,89.665
2023-02-11T07:21:02.243Z,89.665
2023-02-11T07:28:01.391Z,89.495
2023-02-11T07:35:02.109Z,89.495
2023-02-11T07:42:01.574Z,89.134
2023-02-11T07:49:01.988Z,89.487
2023-02-11T07:56:01.606Z,89.487
2023-02-11T08:00:02.251Z,89.487
2023-02-11T08:07:01.982Z,89.711
2023-02-11T08:14:02.101Z,89.711
2023-02-11T08:21:01.779Z,89.732
2023-02-11T08:28:01.818Z,89.953
2023-02-11T08:35:01.796Z,89.953
2023-02-11T08:42:01.521Z,90.626
2023-02-11T08:49:02.189Z,90.626
2023-02-11T08:56:01.767Z,90.061
2023-02-11T09:00:02.358Z,90.061
2023-02-11T09:07:01.409Z,90.359
2023-02-11T09:14:02.230Z,90.359
2023-02-11T09:21:01.830Z,90.765
2023-02-11T09:28:01.405Z,90.765
2023-02-11T09:35:01.612Z,91.069
2023-02-11T09:42:01.931Z,91.069
2023-02-11T09:49:01.681Z,91.096
2023-02-11T09:56:01.924Z,91.096
2023-02-11T10:00:02.655Z,90.935
2023-02-11T10:07:01.637Z,90.935
2023-02-11T10:14:01.375Z,90.673
2023-02-11T10:21:02.305Z,90.673
2023-02-11T10:28:02.249Z,90.656
2023-02-11T10:35:02.001Z,90.656
2023-02-11T10:42:01.421Z,90.674
2023-02-11T10:49:02.326Z,90.551
2023-02-11T10:56:01.446Z,90.551
2023-02-11T11:00:02.051Z,90.551
2023-02-11T11:07:02.234Z,90.565
2023-02-11T11:14:01.712Z,90.565
2023-02-11T11:21:01.482Z,90.541
2023-02-11T11:28:02.172Z,90.521
2023-02-11T11:35:01.639Z,90.521
2023-02-11T11:42:01.406Z,90.518
2023-02-11T11:49:01.668Z,90.518
2023-02-11T11:56:01.543Z,90.567
2023-02-11T12:00:02.176Z,90.567
2023-02-11T12:07:01.944Z,90.884
2023-02-11T12:14:01.563Z,90.884
2023-02-11T12:21:01.554Z,90.97
2023-02-11T12:28:01.688Z,90.97
2023-02-11T12:35:02.336Z,90.882
2023-02-11T12:42:01.645Z,90.882
2023-02-11T12:49:01.316Z,90.729
2023-02-11T12:56:01.865Z,90.729
2023-02-11T13:00:02.586Z,90.908
2023-02-11T13:07:01.968Z,90.908
2023-02-11T13:14:01.549Z,90.791
2023-02-11T13:21:01.891Z,90.791
2023-02-11T13:28:01.650Z,90.931
2023-02-11T13:35:02.041Z,90.931
2023-02-11T13:42:01.906Z,90.574
2023-02-11T13:49:01.737Z,90.558
2023-02-11T13:56:01.563Z,90.558
2023-02-11T14:00:02.182Z,90.558
2023-02-11T14:07:01.654Z,90.44
2023-02-11T14:14:02.078Z,90.126
2023-02-11T14:21:03.506Z,90.126
2023-02-11T14:28:01.964Z,89.937
2023-02-11T14:35:01.939Z,89.937
2023-02-11T14:42:01.738Z,89.68
2023-02-11T14:49:01.792Z,89.68
2023-02-11T14:56:02.100Z,89.51
2023-02-11T15:00:01.740Z,89.51
2023-02-11T15:07:02.304Z,89.406
2023-02-11T15:14:01.763Z,89.406
2023-02-11T15:21:01.520Z,89.532
2023-02-11T15:28:01.832Z,89.532
2023-02-11T15:35:02.539Z,89.595
2023-02-11T15:42:02.097Z,89.595
2023-02-11T15:49:01.595Z,89.67
2023-02-11T15:56:01.873Z,89.67
2023-02-11T16:00:02.436Z,89.535
2023-02-11T16:07:02.221Z,89.535
2023-02-11T16:14:01.860Z,89.604
2023-02-11T16:21:02.091Z,89.604
2023-02-11T16:28:01.767Z,89.972
2023-02-11T16:35:01.737Z,89.972
2023-02-11T16:42:02.054Z,89.575
2023-02-11T16:49:02.061Z,89.572
2023-02-11T16:56:02.050Z,89.572
2023-02-11T17:00:01.646Z,89.572
2023-02-11T17:07:01.748Z,89.906
2023-02-11T17:14:02.056Z,89.972
2023-02-11T17:21:02.082Z,89.972
2023-02-11T17:28:02.424Z,90.193
2023-02-11T17:35:01.748Z,90.193
2023-02-11T17:42:01.408Z,90.082
2023-02-11T17:49:02.020Z,90.082
2023-02-11T17:56:01.746Z,90.388
2023-02-11T18:00:02.435Z,90.388
2023-02-11T18:07:01.957Z,90.394
2023-02-11T18:14:01.624Z,90.394
2023-02-11T18:21:01.710Z,90.536
2023-02-11T18:28:02.085Z,90.536
2023-02-11T18:35:02.178Z,90.657
2023-02-11T18:42:02.245Z,90.657
2023-02-11T18:49:02.155Z,90.902
2023-02-11T18:56:01.755Z,90.902
2023-02-11T19:00:02.321Z,90.806
2023-02-11T19:07:01.885Z,90.806
2023-02-11T19:14:01.610Z,90.902
2023-02-11T19:21:02.276Z,90.902
2023-02-11T19:28:01.409Z,91.044
2023-02-11T19:35:01.545Z,91.044
2023-02-11T19:42:02.265Z,91.137
2023-02-11T19:49:01.869Z,91.059
2023-02-11T19:56:01.842Z,91.059
2023-02-11T20:00:02.416Z,91.059
2023-02-11T20:07:01.809Z,91.083
2023-02-11T20:14:01.878Z,91.45
2023-02-11T20:21:01.893Z,91.45
2023-02-11T20:28:01.944Z,91.373
2023-02-11T20:35:02.484Z,91.373
2023-02-11T20:42:01.357Z,91.275
2023-02-11T20:49:02.045Z,91.275
2023-02-11T20:56:01.490Z,91.462
2023-02-11T21:00:02.079Z,91.462
2023-02-11T21:07:01.757Z,91.38
2023-02-11T21:14:01.356Z,91.38
2023-02-11T21:21:02.099Z,91.404
2023-02-11T21:28:02.155Z,91.404
2023-02-11T21:35:02.478Z,91.553
2023-02-11T21:42:02.092Z,91.553
2023-02-11T21:49:02.046Z,91.52
2023-02-11T21:56:02.674Z,91.52
2023-02-11T22:00:02.263Z,91.472
2023-02-11T22:07:01.847Z,91.472
2023-02-11T22:14:02.092Z,91.335
2023-02-11T22:21:02.219Z,91.335
2023-02-11T22:28:02.261Z,91.371
2023-02-11T22:35:01.920Z,91.382
2023-02-11T22:42:01.944Z,91.382
2023-02-11T22:49:01.624Z,91.172
2023-02-11T22:56:01.756Z,91.172
2023-02-11T23:00:02.385Z,91.172
2023-02-11T23:07:01.479Z,90.853
2023-02-11T23:14:02.199Z,90.885
2023-02-11T23:21:02.299Z,90.885
2023-02-11T23:28:01.344Z,90.624
2023-02-11T23:35:02.100Z,90.624
2023-02-11T23:42:01.926Z,90.37
2023-02-11T23:49:02.011Z,90.37
2023-02-11T23:56:02.160Z,90.233
